Aviation Digital Data Service (ADDS)

Output produced by TAFs form (0750 UTC 23 April 2018)
found at http://aviationweather.gov/adds/tafs/
 
METAR text: RJCC 230730Z 17014KT 9999 FEW007 BKN/// 07/04 Q1024
Conditions at: RJCC (CHITOSE (JASDF/C, JP) observed 0730 UTC 23 April 2018
Temperature: 7.0°C (45°F)
Dewpoint: 4.0°C (39°F) [RH = 81%]
Pressure (altimeter): 30.24 inches Hg (1024.0 mb)
Winds: from the S (170 degrees) at 16 MPH (14 knots; 7.3 m/s)
Visibility: 6 or more miles (10+ km)
Ceiling: at least 12,000 feet AGL
Clouds: few clouds at 700 feet AGL
Weather: no significant weather observed at this time

Forecast for: RJCC (CHITOSE (JASDF/C, JP)
Text: TAF RJCC 230505Z 2306/2412 17010KT 9999 FEW008 SCT015
Forecast period: 0600 UTC 23 April 2018 to 0000 UTC 24 April 2018
Forecast type: FROM: standard forecast or significant change
Winds: from the S (170 degrees) at 12 MPH (10 knots; 5.2 m/s)
Visibility: 6 or more miles (10+ km)
Clouds: few clouds at 800 feet AGL
scattered clouds at 1500 feet AGL
Weather: no significant weather forecast for this period
Forecast for: RJCC (CHITOSE (JASDF/C, JP)
Text: TAF RJCC 230505Z 2306/2412 17010KT 9999 FEW008 SCT015
Forecast period: 0600 UTC 23 April 2018 to 0000 UTC 24 April 2018
Forecast type: FROM: standard forecast or significant change
Winds: from the S (170 degrees) at 12 MPH (10 knots; 5.2 m/s)
Visibility: 6 or more miles (10+ km)
Clouds: few clouds at 800 feet AGL
scattered clouds at 1500 feet AGL
Weather: no significant weather forecast for this period
Forecast for: RJCC (CHITOSE (JASDF/C, JP)
Text: TAF RJCC 230505Z 2306/2412 17010KT 9999 FEW008 SCT015
Forecast period: 0900 to 1800 UTC 23 April 2018
Forecast type: TEMPORARY: The following changes expected for less than half the time period
Visibility: 1.86 miles (2.99 km)
Ceiling: 600 feet AGL
Clouds: few clouds at 300 feet AGL
broken clouds at 600 feet AGL
Weather: BR  (mist)
Forecast for: RJCC (CHITOSE (JASDF/C, JP)
Text: TAF RJCC 230505Z 2306/2412 17010KT 9999 FEW008 SCT015
Forecast period: 0900 to 1800 UTC 23 April 2018
Forecast type: TEMPORARY: The following changes expected for less than half the time period
Visibility: 1.86 miles (2.99 km)
Ceiling: 600 feet AGL
Clouds: few clouds at 300 feet AGL
broken clouds at 600 feet AGL
Weather: BR  (mist)
Forecast for: RJCC (CHITOSE (JASDF/C, JP)
Text: TAF RJCC 230505Z 2306/2412 17010KT 9999 FEW008 SCT015
Forecast period: 1800 UTC 23 April 2018 to 0300 UTC 24 April 2018
Forecast type: TEMPORARY: The following changes expected for less than half the time period
Visibility: 2.49 miles (4.01 km)
Ceiling: 800 feet AGL
Clouds: few clouds at 400 feet AGL
broken clouds at 800 feet AGL
Weather: -SHRA BR  (light rain showers, mist)
Forecast for: RJCC (CHITOSE (JASDF/C, JP)
Text: TAF RJCC 230505Z 2306/2412 17010KT 9999 FEW008 SCT015
Forecast period: 1800 UTC 23 April 2018 to 0300 UTC 24 April 2018
Forecast type: TEMPORARY: The following changes expected for less than half the time period
Visibility: 2.49 miles (4.01 km)
Ceiling: 800 feet AGL
Clouds: few clouds at 400 feet AGL
broken clouds at 800 feet AGL
Weather: -SHRA BR  (light rain showers, mist)
Forecast for: RJCC (CHITOSE (JASDF/C, JP)
Text: TAF RJCC 230505Z 2306/2412 17010KT 9999 FEW008 SCT015
Forecast period: 0000 to 1200 UTC 24 April 2018
Forecast type: BECOMING: Conditions expected to become as follows by 0300 UTC 24 April 2018
Winds: from the NNW (340 degrees) at 9 MPH (8 knots; 4.2 m/s)
Visibility: 6 or more miles (10+ km)
Clouds: few clouds at 800 feet AGL
scattered clouds at 1500 feet AGL
Weather: no significant weather forecast for this period
Forecast for: RJCC (CHITOSE (JASDF/C, JP)
Text: TAF RJCC 230505Z 2306/2412 17010KT 9999 FEW008 SCT015
Forecast period: 0000 to 1200 UTC 24 April 2018
Forecast type: BECOMING: Conditions expected to become as follows by 0300 UTC 24 April 2018
Winds: from the NNW (340 degrees) at 9 MPH (8 knots; 4.2 m/s)
Visibility: 6 or more miles (10+ km)
Clouds: few clouds at 800 feet AGL
scattered clouds at 1500 feet AGL
Weather: no significant weather forecast for this period